createdAt,value
2022-09-28T00:00:22.047Z,0.00
2022-09-28T00:01:22.067Z,0.00
2022-09-28T00:02:23.127Z,0.00
2022-09-28T00:03:21.707Z,0.00
2022-09-28T00:04:21.979Z,0.00
2022-09-28T00:05:21.692Z,0.00
2022-09-28T00:06:21.687Z,0.00
2022-09-28T00:07:21.652Z,0.00
2022-09-28T00:08:21.785Z,0.00
2022-09-28T00:09:22.421Z,0.00
2022-09-28T00:10:21.939Z,0.00
2022-09-28T00:11:21.616Z,0.00
2022-09-28T00:12:21.587Z,0.00
2022-09-28T00:13:21.576Z,0.00
2022-09-28T00:14:21.591Z,0.00
2022-09-28T00:15:21.573Z,0.00
2022-09-28T00:16:21.612Z,0.00
2022-09-28T00:17:21.571Z,0.00
2022-09-28T00:18:21.583Z,0.00
2022-09-28T00:19:22.304Z,0.00
2022-09-28T00:20:21.491Z,0.00
2022-09-28T00:21:21.485Z,0.00
2022-09-28T00:22:21.448Z,0.00
2022-09-28T00:23:21.444Z,0.00
2022-09-28T00:24:26.654Z,0.00
2022-09-28T00:25:23.020Z,0.00
2022-09-28T00:26:21.416Z,0.00
2022-09-28T00:27:24.173Z,0.00
2022-09-28T00:28:21.374Z,0.00
2022-09-28T00:29:21.379Z,0.00
2022-09-28T00:30:21.356Z,0.00
2022-09-28T00:31:21.672Z,0.00
2022-09-28T00:32:21.323Z,0.00
2022-09-28T00:33:21.327Z,0.00
2022-09-28T00:34:21.295Z,0.00
2022-09-28T00:35:21.313Z,0.00
2022-09-28T00:36:21.291Z,0.00
2022-09-28T00:37:21.528Z,0.00
2022-09-28T00:38:21.259Z,0.00
2022-09-28T00:39:21.228Z,0.00
2022-09-28T00:40:21.240Z,0.00
2022-09-28T00:41:22.013Z,0.00
2022-09-28T00:42:21.188Z,0.00
2022-09-28T00:43:21.512Z,0.00
2022-09-28T00:44:21.538Z,0.00
2022-09-28T00:45:21.149Z,0.00
2022-09-28T00:46:21.427Z,0.00
2022-09-28T00:47:21.155Z,0.00
2022-09-28T00:48:21.109Z,0.00
2022-09-28T00:49:24.863Z,0.00
2022-09-28T00:50:21.077Z,0.00
2022-09-28T00:51:21.110Z,0.00
2022-09-28T00:52:21.343Z,0.00
2022-09-28T00:53:21.055Z,0.00
2022-09-28T00:54:21.024Z,0.00
2022-09-28T00:55:21.012Z,0.00
2022-09-28T00:56:21.313Z,0.00
2022-09-28T00:57:20.988Z,0.00
2022-09-28T00:58:21.238Z,0.00
2022-09-28T00:59:21.036Z,0.00
2022-09-28T01:00:20.945Z,0.00
2022-09-28T01:01:21.019Z,0.00
2022-09-28T01:02:23.822Z,0.00
2022-09-28T01:03:20.926Z,0.00
2022-09-28T01:04:20.887Z,0.00
2022-09-28T01:05:20.886Z,0.00
2022-09-28T01:06:20.866Z,0.00
2022-09-28T01:07:20.854Z,0.00
2022-09-28T01:08:20.848Z,0.00
2022-09-28T01:09:21.210Z,0.00
2022-09-28T01:10:21.097Z,0.00
2022-09-28T01:11:20.806Z,0.00
2022-09-28T01:12:21.552Z,0.00
2022-09-28T01:13:20.783Z,0.00
2022-09-28T01:14:20.798Z,0.00
2022-09-28T01:15:20.744Z,0.00
2022-09-28T01:16:20.847Z,0.00
2022-09-28T01:17:20.762Z,0.00
2022-09-28T01:18:20.934Z,0.00
2022-09-28T01:19:20.704Z,0.00
2022-09-28T01:20:20.687Z,0.00
2022-09-28T01:21:20.685Z,0.00
2022-09-28T01:22:20.643Z,0.00
2022-09-28T01:23:20.661Z,0.00
2022-09-28T01:24:20.638Z,0.00
2022-09-28T01:25:20.616Z,0.00
2022-09-28T01:26:20.708Z,0.00
2022-09-28T01:27:20.640Z,0.00
2022-09-28T01:28:20.840Z,0.00
2022-09-28T01:29:24.635Z,0.00
2022-09-28T01:30:20.552Z,0.00
2022-09-28T01:31:20.780Z,0.00
2022-09-28T01:32:20.809Z,0.00
2022-09-28T01:33:20.538Z,0.00
2022-09-28T01:34:20.497Z,0.00
2022-09-28T01:35:20.495Z,0.00
2022-09-28T01:36:20.465Z,0.00
2022-09-28T01:37:20.531Z,0.00
2022-09-28T01:38:20.457Z,0.00
2022-09-28T01:39:20.433Z,0.00
2022-09-28T01:40:20.463Z,0.00
2022-09-28T01:41:20.412Z,0.00
2022-09-28T01:42:20.397Z,0.00
2022-09-28T01:43:20.639Z,0.00
2022-09-28T01:44:23.095Z,0.00
2022-09-28T01:45:20.366Z,0.00
2022-09-28T01:46:20.430Z,0.00
2022-09-28T01:47:22.313Z,0.00
2022-09-28T01:48:20.333Z,0.00
2022-09-28T01:49:20.585Z,0.00
2022-09-28T01:50:20.294Z,0.00
2022-09-28T01:51:20.281Z,0.00
2022-09-28T01:52:20.282Z,0.00
2022-09-28T01:53:20.578Z,0.00
2022-09-28T01:54:20.302Z,0.00
2022-09-28T01:55:20.252Z,0.00
2022-09-28T01:56:20.216Z,0.00
2022-09-28T01:57:20.245Z,0.00
2022-09-28T01:58:21.387Z,0.00
2022-09-28T01:59:20.236Z,0.00
2022-09-28T02:00:20.186Z,0.00
2022-09-28T02:01:20.229Z,0.00
2022-09-28T02:02:20.231Z,0.00
2022-09-28T02:03:20.133Z,0.00
2022-09-28T02:04:20.187Z,0.00
2022-09-28T02:05:20.154Z,0.00
2022-09-28T02:06:20.091Z,0.00
2022-09-28T02:07:24.037Z,0.00
2022-09-28T02:08:20.066Z,0.00
2022-09-28T02:09:20.124Z,0.00
2022-09-28T02:10:20.299Z,0.00
2022-09-28T02:11:20.298Z,0.00
2022-09-28T02:12:21.971Z,0.00
2022-09-28T02:13:20.097Z,0.00
2022-09-28T02:14:19.992Z,0.00
2022-09-28T02:15:20.049Z,0.00
2022-09-28T02:16:20.823Z,0.00
2022-09-28T02:17:20.029Z,0.00
2022-09-28T02:18:19.941Z,0.00
2022-09-28T02:19:20.241Z,0.00
2022-09-28T02:20:19.943Z,0.00
2022-09-28T02:21:20.155Z,0.00
2022-09-28T02:22:19.903Z,0.00
2022-09-28T02:23:20.145Z,0.00
2022-09-28T02:24:21.649Z,0.00
2022-09-28T02:25:20.181Z,0.00
2022-09-28T02:26:19.847Z,0.00
2022-09-28T02:27:19.878Z,0.00
2022-09-28T02:28:19.789Z,0.00
2022-09-28T02:29:19.813Z,0.00
2022-09-28T02:30:20.122Z,0.00
2022-09-28T02:31:19.881Z,0.00
2022-09-28T02:32:19.752Z,0.00
2022-09-28T02:33:19.764Z,0.00
2022-09-28T02:34:19.727Z,0.00
2022-09-28T02:35:19.719Z,0.00
2022-09-28T02:36:19.732Z,0.00
2022-09-28T02:37:19.757Z,0.00
2022-09-28T02:38:22.410Z,0.00
2022-09-28T02:39:19.672Z,0.00
2022-09-28T02:40:19.686Z,0.00
2022-09-28T02:41:19.659Z,0.00
2022-09-28T02:42:19.636Z,0.00
2022-09-28T02:43:19.610Z,0.00
2022-09-28T02:44:19.589Z,0.00
2022-09-28T02:45:19.589Z,0.00
2022-09-28T02:46:19.638Z,0.00
2022-09-28T02:47:19.565Z,0.00
2022-09-28T02:48:35.925Z,0.00
2022-09-28T02:49:22.018Z,0.00
2022-09-28T02:50:19.508Z,0.00
2022-09-28T02:51:19.756Z,0.00
2022-09-28T02:52:19.518Z,0.00
2022-09-28T02:53:19.482Z,0.00
2022-09-28T02:54:19.453Z,0.00
2022-09-28T02:55:19.447Z,0.00
2022-09-28T02:56:19.503Z,0.00
2022-09-28T02:57:19.452Z,0.00
2022-09-28T02:58:21.228Z,0.00
2022-09-28T02:59:19.402Z,0.00
2022-09-28T03:00:22.114Z,0.00
2022-09-28T03:01:19.467Z,0.00
2022-09-28T03:02:19.449Z,0.00
2022-09-28T03:03:19.350Z,0.00
2022-09-28T03:04:19.333Z,0.00
2022-09-28T03:05:19.358Z,0.00
2022-09-28T03:06:19.320Z,0.00
2022-09-28T03:07:19.588Z,0.00
2022-09-28T03:08:19.346Z,0.00
2022-09-28T03:09:19.280Z,0.00
2022-09-28T03:10:19.276Z,0.00
2022-09-28T03:11:19.248Z,0.00
2022-09-28T03:12:19.516Z,0.00
2022-09-28T03:13:19.276Z,0.00
2022-09-28T03:14:19.503Z,0.00
2022-09-28T03:15:19.201Z,0.00
2022-09-28T03:16:19.625Z,0.00
2022-09-28T03:17:19.193Z,0.00
2022-09-28T03:18:19.165Z,0.00
2022-09-28T03:19:19.152Z,0.00
2022-09-28T03:20:19.173Z,0.00
2022-09-28T03:21:21.876Z,0.00
2022-09-28T03:22:19.169Z,0.00
2022-09-28T03:23:24.782Z,0.00
2022-09-28T03:24:20.089Z,0.00
2022-09-28T03:25:19.085Z,0.00
2022-09-28T03:26:19.058Z,0.00
2022-09-28T03:27:21.904Z,0.00
2022-09-28T03:28:20.978Z,0.00
2022-09-28T03:29:19.117Z,0.00
2022-09-28T03:30:21.779Z,0.00
2022-09-28T03:31:19.095Z,0.00
2022-09-28T03:32:22.789Z,0.00
2022-09-28T03:33:25.543Z,0.00
2022-09-28T03:34:20.654Z,0.00
2022-09-28T03:35:18.980Z,0.00
2022-09-28T03:36:18.928Z,0.00
2022-09-28T03:37:18.932Z,0.00
2022-09-28T03:38:18.938Z,0.00
2022-09-28T03:39:19.048Z,0.00
2022-09-28T03:40:19.207Z,0.00
2022-09-28T03:41:18.866Z,0.00
2022-09-28T03:42:18.987Z,0.00
2022-09-28T03:43:21.611Z,0.00
2022-09-28T03:44:18.860Z,0.00
2022-09-28T03:45:19.101Z,0.00
2022-09-28T03:46:20.603Z,0.00
2022-09-28T03:47:19.079Z,0.00
2022-09-28T03:48:24.493Z,0.00
2022-09-28T03:49:19.784Z,0.00
2022-09-28T03:50:18.772Z,0.00
2022-09-28T03:51:18.823Z,0.00
2022-09-28T03:52:18.766Z,0.00
2022-09-28T03:53:18.737Z,0.00
2022-09-28T03:54:18.714Z,0.00
2022-09-28T03:55:18.725Z,0.00
2022-09-28T03:56:18.671Z,0.00
2022-09-28T03:57:18.727Z,0.00
2022-09-28T03:58:18.914Z,0.00
2022-09-28T03:59:18.660Z,0.00
2022-09-28T04:00:18.642Z,0.00
2022-09-28T04:01:18.725Z,0.00
2022-09-28T04:02:18.948Z,0.00
2022-09-28T04:03:19.567Z,0.00
2022-09-28T04:04:18.972Z,0.00
2022-09-28T04:05:18.585Z,0.00
2022-09-28T04:06:18.555Z,0.00
2022-09-28T04:07:18.568Z,0.00
2022-09-28T04:08:18.535Z,0.00
2022-09-28T04:09:18.697Z,0.00
2022-09-28T04:10:18.521Z,0.00
2022-09-28T04:11:18.523Z,0.00
2022-09-28T04:12:18.544Z,0.00
2022-09-28T04:13:18.468Z,0.00
2022-09-28T04:14:18.484Z,0.00
2022-09-28T04:15:18.440Z,0.00
2022-09-28T04:16:18.743Z,0.00
2022-09-28T04:17:18.421Z,0.00
2022-09-28T04:18:18.710Z,0.00
2022-09-28T04:19:19.695Z,0.00
2022-09-28T04:20:19.189Z,0.00
2022-09-28T04:21:18.478Z,0.00
2022-09-28T04:22:19.147Z,0.00
2022-09-28T04:23:18.367Z,0.00
2022-09-28T04:24:19.124Z,0.00
2022-09-28T04:25:18.310Z,0.00
2022-09-28T04:26:18.342Z,0.00
2022-09-28T04:27:18.275Z,0.00
2022-09-28T04:28:18.305Z,0.00
2022-09-28T04:29:18.464Z,0.00
2022-09-28T04:30:18.267Z,0.00
2022-09-28T04:31:22.300Z,0.00
2022-09-28T04:32:18.227Z,0.00
2022-09-28T04:33:18.301Z,0.00
2022-09-28T04:34:18.495Z,0.00
2022-09-28T04:35:18.191Z,0.00
2022-09-28T04:36:18.176Z,0.00
2022-09-28T04:37:18.154Z,0.00
2022-09-28T04:38:26.916Z,0.00
2022-09-28T04:39:19.348Z,0.00
2022-09-28T04:40:18.159Z,0.00
2022-09-28T04:41:18.101Z,0.00
2022-09-28T04:42:18.367Z,0.00
2022-09-28T04:43:18.360Z,0.00
2022-09-28T04:44:18.073Z,0.00
2022-09-28T04:45:18.077Z,0.00
2022-09-28T04:46:18.097Z,0.00
2022-09-28T04:47:18.103Z,0.00
2022-09-28T04:48:18.291Z,0.00
2022-09-28T04:49:18.137Z,4.00
2022-09-28T04:50:17.988Z,4.00
2022-09-28T04:51:17.965Z,0.00
2022-09-28T04:52:18.512Z,4.00
2022-09-28T04:53:17.945Z,4.00
2022-09-28T04:54:18.175Z,4.00
2022-09-28T04:55:18.199Z,4.00
2022-09-28T04:56:17.920Z,8.00
2022-09-28T04:57:17.910Z,8.00
2022-09-28T04:58:17.894Z,8.00
2022-09-28T04:59:17.953Z,8.00
2022-09-28T05:00:18.122Z,12.00
2022-09-28T05:01:17.940Z,16.00
2022-09-28T05:02:17.867Z,16.00
2022-09-28T05:03:18.098Z,16.00
2022-09-28T05:04:21.273Z,24.00
2022-09-28T05:05:18.795Z,24.00
2022-09-28T05:06:17.774Z,32.00
2022-09-28T05:07:17.790Z,36.00
2022-09-28T05:08:20.442Z,36.00
2022-09-28T05:09:17.827Z,44.00
2022-09-28T05:10:17.712Z,48.00
2022-09-28T05:11:17.727Z,56.00
2022-09-28T05:12:17.696Z,64.00
2022-09-28T05:13:18.001Z,68.00
2022-09-28T05:14:17.945Z,76.00
2022-09-28T05:15:18.943Z,80.00
2022-09-28T05:16:17.677Z,92.00
2022-09-28T05:17:17.714Z,100.00
2022-09-28T05:18:17.615Z,104.00
2022-09-28T05:19:17.700Z,116.00
2022-09-28T05:20:17.575Z,120.00
2022-09-28T05:21:18.268Z,132.00
2022-09-28T05:29:19.507Z,236.00
2022-09-28T05:30:16.788Z,256.00
2022-09-28T05:31:16.815Z,288.00
2022-09-28T05:32:17.086Z,308.00
2022-09-28T05:33:16.729Z,324.00
2022-09-28T05:34:16.713Z,340.00
2022-09-28T05:35:17.037Z,364.00
2022-09-28T05:36:16.700Z,388.00
2022-09-28T05:37:16.704Z,416.00
2022-09-28T05:38:16.717Z,448.00
2022-09-28T05:39:16.728Z,452.00
2022-09-28T05:40:16.722Z,460.00
2022-09-28T05:41:16.637Z,488.00
2022-09-28T05:42:16.621Z,520.00
2022-09-28T05:43:16.937Z,552.00
2022-09-28T05:44:16.727Z,592.00
2022-09-28T05:45:28.230Z,620.00
2022-09-28T05:46:16.655Z,644.00
2022-09-28T05:47:16.544Z,684.00
2022-09-28T05:48:16.549Z,708.00
2022-09-28T05:49:16.528Z,736.00
2022-09-28T05:50:16.511Z,760.00
2022-09-28T05:51:18.976Z,800.00
2022-09-28T05:52:16.477Z,872.00
2022-09-28T05:53:16.499Z,960.00
2022-09-28T05:54:16.667Z,1060.00
2022-09-28T05:55:16.418Z,1088.00
2022-09-28T05:56:16.448Z,1116.00
2022-09-28T05:57:21.167Z,1184.00
2022-09-28T05:58:16.690Z,1200.00
2022-09-28T05:59:17.363Z,1304.00
2022-09-28T06:00:16.675Z,1468.00
2022-09-28T06:01:16.414Z,1528.00
2022-09-28T06:02:19.192Z,1500.00
2022-09-28T06:03:16.407Z,1432.00
2022-09-28T06:04:18.998Z,1428.00
2022-09-28T06:05:16.303Z,1480.00
2022-09-28T06:06:18.970Z,1588.00
2022-09-28T06:07:16.283Z,1708.00
2022-09-28T06:08:16.676Z,1696.00
2022-09-28T06:09:16.241Z,1696.00
2022-09-28T06:10:16.239Z,1708.00
2022-09-28T06:11:16.228Z,1776.00
2022-09-28T06:12:16.239Z,1836.00
2022-09-28T06:13:16.231Z,1816.00
2022-09-28T06:14:16.270Z,1744.00
2022-09-28T06:15:16.163Z,1632.00
2022-09-28T06:16:16.447Z,1608.00
2022-09-28T06:17:16.476Z,1660.00
2022-09-28T06:18:16.141Z,1728.00
2022-09-28T06:19:16.129Z,1824.00
2022-09-28T06:20:16.379Z,1976.00
2022-09-28T06:21:17.826Z,2096.00
2022-09-28T06:22:16.108Z,2264.00
2022-09-28T06:23:16.352Z,2448.00
2022-09-28T06:24:17.012Z,2580.00
2022-09-28T06:25:16.054Z,2716.00
2022-09-28T06:26:16.351Z,2812.00
2022-09-28T06:27:16.009Z,2844.00
2022-09-28T06:28:16.067Z,2744.00
2022-09-28T06:29:19.292Z,2752.00
2022-09-28T06:30:16.277Z,2788.00
2022-09-28T06:31:18.779Z,2672.00
2022-09-28T06:32:15.944Z,2536.00
2022-09-28T06:33:15.928Z,2552.00
2022-09-28T06:34:16.019Z,2408.00
2022-09-28T06:35:15.932Z,2328.00
2022-09-28T06:36:15.924Z,2416.00
2022-09-28T06:37:15.874Z,2312.00
2022-09-28T06:38:16.147Z,2292.00
2022-09-28T06:39:16.242Z,2288.00
2022-09-28T06:40:18.696Z,2212.00
2022-09-28T06:41:16.762Z,2088.00
2022-09-28T06:42:15.857Z,1916.00
2022-09-28T06:43:15.816Z,1884.00
2022-09-28T06:44:16.128Z,2004.00
2022-09-28T06:45:17.817Z,2152.00
2022-09-28T06:46:15.827Z,2332.00
2022-09-28T06:47:16.432Z,2512.00
2022-09-28T06:48:15.745Z,2672.00
2022-09-28T06:49:19.342Z,2832.00
2022-09-28T06:50:15.713Z,2936.00
2022-09-28T06:51:15.951Z,3044.00
2022-09-28T06:52:15.720Z,3216.00
2022-09-28T06:53:18.459Z,3308.00
2022-09-28T06:54:19.792Z,2968.00
2022-09-28T06:55:15.625Z,2616.00
2022-09-28T06:56:15.642Z,2484.00
2022-09-28T06:57:15.616Z,2536.00
2022-09-28T06:58:15.592Z,2780.00
2022-09-28T06:59:15.646Z,2988.00
2022-09-28T07:00:15.575Z,3116.00
2022-09-28T07:01:15.885Z,3328.00
2022-09-28T07:02:15.614Z,3452.00
2022-09-28T07:03:15.545Z,3176.00
2022-09-28T07:04:15.627Z,3028.00
2022-09-28T07:05:15.507Z,3124.00
2022-09-28T07:06:15.502Z,3256.00
2022-09-28T07:07:15.515Z,3376.00
2022-09-28T07:08:15.474Z,3456.00
2022-09-28T07:09:29.587Z,3256.00
2022-09-28T07:10:16.444Z,3248.00
2022-09-28T07:11:15.509Z,3512.00
2022-09-28T07:12:15.410Z,3404.00
2022-09-28T07:13:37.274Z,3156.00
2022-09-28T07:14:30.064Z,3460.00
2022-09-28T07:15:16.659Z,3376.00
2022-09-28T07:16:15.428Z,3400.00
2022-09-28T07:17:15.516Z,3732.00
2022-09-28T07:18:15.442Z,3976.00
2022-09-28T07:19:15.316Z,4152.00
2022-09-28T07:20:19.088Z,3848.00
2022-09-28T07:21:25.977Z,3768.00
2022-09-28T07:22:28.265Z,3684.00
2022-09-28T07:23:19.684Z,3580.00
2022-09-28T07:24:15.292Z,4012.00
2022-09-28T07:25:15.284Z,4224.00
2022-09-28T07:26:16.067Z,4112.00
2022-09-28T07:27:15.221Z,4004.00
2022-09-28T07:28:15.222Z,4316.00
2022-09-28T07:29:15.178Z,4288.00
2022-09-28T07:30:15.182Z,3760.00
2022-09-28T07:31:15.541Z,3372.00
2022-09-28T07:32:15.177Z,3160.00
2022-09-28T07:33:15.172Z,3284.00
2022-09-28T07:34:15.161Z,3600.00
2022-09-28T07:35:15.800Z,4152.00
2022-09-28T07:36:15.375Z,4592.00
2022-09-28T07:37:15.156Z,5084.00
2022-09-28T07:38:15.101Z,5128.00
2022-09-28T07:39:15.351Z,4936.00
2022-09-28T07:40:15.209Z,4564.00
2022-09-28T07:41:15.023Z,4316.00
2022-09-28T07:42:15.034Z,4560.00
2022-09-28T07:43:15.048Z,4964.00
2022-09-28T07:44:15.021Z,5024.00
2022-09-28T07:45:15.254Z,5272.00
2022-09-28T07:46:15.251Z,5840.00
2022-09-28T07:47:15.348Z,6160.00
2022-09-28T07:48:15.238Z,5228.00
2022-09-28T07:49:14.967Z,4648.00
2022-09-28T07:50:14.912Z,4648.00
2022-09-28T07:51:14.958Z,4708.00
2022-09-28T07:52:14.908Z,5008.00
2022-09-28T07:53:14.908Z,5180.00
2022-09-28T07:54:14.969Z,5496.00
2022-09-28T07:55:14.857Z,5432.00
2022-09-28T07:56:14.885Z,5480.00
2022-09-28T07:57:15.128Z,5584.00
2022-09-28T07:58:14.872Z,5700.00
2022-09-28T07:59:14.859Z,5988.00
2022-09-28T08:00:14.856Z,6076.00
2022-09-28T08:01:14.954Z,6196.00
2022-09-28T08:02:14.884Z,6236.00
2022-09-28T08:03:14.755Z,6076.00
2022-09-28T08:04:14.745Z,6284.00
2022-09-28T08:05:14.722Z,6824.00
2022-09-28T08:06:16.759Z,7420.00
2022-09-28T08:07:14.730Z,7800.00
2022-09-28T08:08:16.380Z,7752.00
2022-09-28T08:09:15.594Z,7720.00
2022-09-28T08:10:15.244Z,7584.00
2022-09-28T08:11:14.914Z,7464.00
2022-09-28T08:12:14.624Z,7648.00
2022-09-28T08:13:14.622Z,8120.00
2022-09-28T08:14:14.918Z,8476.00
2022-09-28T08:15:17.304Z,8716.00
2022-09-28T08:16:14.711Z,8748.00
2022-09-28T08:17:14.840Z,7776.00
2022-09-28T08:18:14.597Z,7164.00
2022-09-28T08:19:14.707Z,7196.00
2022-09-28T08:20:14.530Z,7608.00
2022-09-28T08:21:14.509Z,7532.00
2022-09-28T08:22:18.247Z,7600.00
2022-09-28T08:23:14.753Z,7772.00
2022-09-28T08:24:14.821Z,8128.00
2022-09-28T08:25:14.507Z,7904.00
2022-09-28T08:26:15.766Z,7540.00
2022-09-28T08:27:14.452Z,7208.00
2022-09-28T08:28:14.443Z,7048.00
2022-09-28T08:29:14.668Z,7100.00
2022-09-28T08:30:14.424Z,7064.00
2022-09-28T08:31:14.488Z,6764.00
2022-09-28T08:32:14.379Z,6400.00
2022-09-28T08:33:14.384Z,6672.00
2022-09-28T08:34:14.457Z,6764.00
2022-09-28T08:35:14.343Z,6944.00
2022-09-28T08:36:14.369Z,6904.00
2022-09-28T08:37:14.293Z,7116.00
2022-09-28T08:38:14.312Z,7468.00
2022-09-28T08:39:14.324Z,7312.00
2022-09-28T08:40:14.314Z,6568.00
2022-09-28T08:41:14.255Z,6048.00
2022-09-28T08:42:14.230Z,5984.00
2022-09-28T08:43:14.478Z,5612.00
2022-09-28T08:44:14.337Z,4884.00
2022-09-28T08:45:14.230Z,4284.00
2022-09-28T08:46:14.200Z,4184.00
2022-09-28T08:47:14.158Z,4192.00
2022-09-28T08:48:14.145Z,4136.00
2022-09-28T08:49:24.888Z,4100.00
2022-09-28T08:50:15.130Z,4356.00
2022-09-28T08:51:16.883Z,4516.00
2022-09-28T08:52:14.154Z,4972.00
2022-09-28T08:53:14.092Z,5792.00
2022-09-28T08:54:14.587Z,6056.00
2022-09-28T08:55:14.418Z,6056.00
2022-09-28T08:56:14.059Z,6780.00
2022-09-28T08:57:14.052Z,7380.00
2022-09-28T08:58:14.088Z,7416.00
2022-09-28T08:59:14.259Z,7772.00
2022-09-28T09:00:14.225Z,8388.00
2022-09-28T09:01:14.124Z,8852.00
2022-09-28T09:02:14.832Z,9132.00
2022-09-28T09:03:14.051Z,9556.00
2022-09-28T09:04:14.014Z,9648.00
2022-09-28T09:05:13.998Z,9976.00
2022-09-28T09:06:18.461Z,10464.00
2022-09-28T09:07:14.333Z,10540.00
2022-09-28T09:08:13.919Z,10496.00
2022-09-28T09:09:13.966Z,10280.00
2022-09-28T09:10:13.900Z,10108.00
2022-09-28T09:11:13.884Z,10100.00
2022-09-28T09:12:13.890Z,10372.00
2022-09-28T09:13:13.933Z,9936.00
2022-09-28T09:14:13.864Z,9132.00
2022-09-28T09:15:13.861Z,8652.00
2022-09-28T09:16:14.124Z,8612.00
2022-09-28T09:17:13.777Z,8976.00
2022-09-28T09:18:15.554Z,9408.00
2022-09-28T09:19:13.760Z,10612.00
2022-09-28T09:20:13.721Z,11280.00
2022-09-28T09:21:13.746Z,11068.00
2022-09-28T09:22:13.687Z,10048.00
2022-09-28T09:23:13.704Z,9836.00
2022-09-28T09:24:13.771Z,9600.00
2022-09-28T09:25:13.665Z,9264.00
2022-09-28T09:26:15.572Z,8868.00
2022-09-28T09:27:13.846Z,8084.00
2022-09-28T09:28:13.652Z,7492.00
2022-09-28T09:29:13.643Z,7416.00
2022-09-28T09:30:15.662Z,7504.00
2022-09-28T09:31:13.661Z,7628.00
2022-09-28T09:32:13.614Z,8048.00
2022-09-28T09:33:13.584Z,8040.00
2022-09-28T09:34:13.544Z,7636.00
2022-09-28T09:35:13.595Z,7356.00
2022-09-28T09:36:13.516Z,7528.00
2022-09-28T09:37:13.602Z,7996.00
2022-09-28T09:38:13.551Z,8140.00
2022-09-28T09:39:13.567Z,8288.00
2022-09-28T09:40:13.478Z,8348.00
2022-09-28T09:42:13.429Z,8584.00
2022-09-28T09:43:13.431Z,8596.00
2022-09-28T09:44:13.501Z,8208.00
2022-09-28T09:45:13.430Z,7672.00
2022-09-28T09:46:14.226Z,6612.00
2022-09-28T09:47:13.362Z,6048.00
2022-09-28T09:48:13.351Z,9720.00
2022-09-28T09:49:13.390Z,7872.00
2022-09-28T09:50:13.673Z,8316.00
2022-09-28T09:51:13.310Z,8268.00
2022-09-28T09:52:13.298Z,8080.00
2022-09-28T09:53:14.185Z,7924.00
2022-09-28T09:54:13.283Z,7668.00
2022-09-28T09:55:13.583Z,7088.00
2022-09-28T09:56:13.247Z,7272.00
2022-09-28T09:57:13.229Z,7020.00
2022-09-28T09:58:13.216Z,6348.00
2022-09-28T09:59:13.492Z,6092.00
2022-09-28T10:00:13.219Z,6908.00
2022-09-28T10:01:13.932Z,6720.00
2022-09-28T10:02:13.272Z,6928.00
2022-09-28T10:03:13.160Z,7336.00
2022-09-28T10:04:13.171Z,7280.00
2022-09-28T10:05:13.149Z,7240.00
2022-09-28T10:06:13.146Z,6468.00
2022-09-28T10:07:13.106Z,5840.00
2022-09-28T10:08:13.105Z,5720.00
2022-09-28T10:09:13.960Z,5644.00
2022-09-28T10:10:13.074Z,5668.00
2022-09-28T10:11:13.764Z,5748.00
2022-09-28T10:12:13.041Z,5788.00
2022-09-28T10:13:13.018Z,5400.00
2022-09-28T10:14:13.024Z,5012.00
2022-09-28T10:15:13.029Z,6448.00
2022-09-28T10:16:13.028Z,7700.00
2022-09-28T10:17:12.994Z,7196.00
2022-09-28T10:18:13.356Z,4832.00
2022-09-28T10:19:12.975Z,4460.00
2022-09-28T10:20:13.299Z,5348.00
2022-09-28T10:21:12.930Z,7360.00
2022-09-28T10:22:12.904Z,7292.00
2022-09-28T10:23:12.889Z,7280.00
2022-09-28T10:24:12.916Z,7368.00
2022-09-28T10:25:13.191Z,7760.00
2022-09-28T10:26:13.109Z,8192.00
2022-09-28T10:27:12.867Z,8764.00
2022-09-28T10:28:12.821Z,9544.00
2022-09-28T10:29:12.813Z,10372.00
2022-09-28T10:30:13.124Z,11056.00
2022-09-28T10:31:12.803Z,11640.00
2022-09-28T10:32:13.114Z,11572.00
2022-09-28T10:33:12.756Z,10864.00
2022-09-28T10:34:12.735Z,9588.00
2022-09-28T10:35:13.554Z,8944.00
2022-09-28T10:36:12.724Z,8764.00
2022-09-28T10:37:12.716Z,8452.00
2022-09-28T10:38:14.416Z,8132.00
2022-09-28T10:39:12.677Z,8744.00
2022-09-28T10:40:12.975Z,8960.00
2022-09-28T10:41:12.646Z,8092.00
2022-09-28T10:42:12.655Z,7588.00
2022-09-28T10:43:12.630Z,7592.00
2022-09-28T10:44:12.627Z,7736.00
2022-09-28T10:45:12.628Z,7928.00
2022-09-28T10:46:12.693Z,8304.00
2022-09-28T10:47:12.834Z,8912.00
2022-09-28T10:48:12.562Z,10268.00
2022-09-28T10:49:12.842Z,17952.00
2022-09-28T10:50:13.160Z,38496.00
2022-09-28T10:51:12.529Z,42592.00
2022-09-28T10:52:12.524Z,43008.00
2022-09-28T10:53:12.491Z,43680.00
2022-09-28T10:54:12.753Z,31072.00
2022-09-28T10:55:12.467Z,14080.00
2022-09-28T10:56:12.460Z,11584.00
2022-09-28T10:57:13.499Z,10756.00
2022-09-28T10:58:15.145Z,9868.00
2022-09-28T10:59:12.536Z,9420.00
2022-09-28T11:00:12.735Z,9452.00
2022-09-28T11:01:12.437Z,10308.00
2022-09-28T11:02:12.427Z,9960.00
2022-09-28T11:03:12.392Z,6460.00
2022-09-28T11:04:12.343Z,8212.00
2022-09-28T11:05:12.345Z,10140.00
2022-09-28T11:06:13.128Z,7784.00
2022-09-28T11:07:13.300Z,9848.00
2022-09-28T11:08:12.561Z,10052.00
2022-09-28T11:09:12.634Z,10584.00
2022-09-28T11:10:12.262Z,11060.00
2022-09-28T11:11:12.243Z,9584.00
2022-09-28T11:12:12.252Z,10308.00
2022-09-28T11:13:12.482Z,10116.00
2022-09-28T11:14:12.217Z,10660.00
2022-09-28T11:15:12.246Z,11128.00
2022-09-28T11:16:12.252Z,11340.00
2022-09-28T11:17:12.210Z,10800.00
2022-09-28T11:18:12.205Z,10444.00
2022-09-28T11:19:12.460Z,10288.00
2022-09-28T11:20:12.178Z,10428.00
2022-09-28T11:21:13.300Z,11088.00
2022-09-28T11:22:13.995Z,11056.00
2022-09-28T11:23:12.088Z,12088.00
2022-09-28T11:24:16.724Z,12096.00
2022-09-28T11:25:13.428Z,8156.00
2022-09-28T11:26:18.755Z,7428.00
2022-09-28T11:27:12.407Z,10128.00
2022-09-28T11:28:12.022Z,10920.00
2022-09-28T11:29:13.918Z,11264.00
2022-09-28T11:30:12.020Z,11248.00
2022-09-28T11:31:12.030Z,11332.00
2022-09-28T11:32:15.672Z,11400.00
2022-09-28T11:33:12.337Z,11320.00
2022-09-28T11:34:12.227Z,12212.00
2022-09-28T11:35:11.947Z,13544.00
2022-09-28T11:36:11.908Z,26048.00
2022-09-28T11:37:11.896Z,47648.00
2022-09-28T11:38:11.909Z,51328.00
2022-09-28T11:39:13.715Z,52352.00
2022-09-28T11:40:12.584Z,54816.00
2022-09-28T11:41:12.490Z,55968.00
2022-09-28T11:42:16.091Z,58176.00
2022-09-28T11:43:14.420Z,58528.00
2022-09-28T11:44:11.808Z,58368.00
2022-09-28T11:45:12.077Z,58176.00
2022-09-28T11:46:11.887Z,57856.00
2022-09-28T11:47:11.775Z,59296.00
2022-09-28T11:48:11.759Z,60800.00
2022-09-28T11:49:12.078Z,49248.00
2022-09-28T11:50:11.752Z,61280.00
2022-09-28T11:51:11.726Z,59616.00
2022-09-28T11:52:11.799Z,59552.00
2022-09-28T11:53:11.723Z,59200.00
2022-09-28T11:54:11.673Z,60608.00
2022-09-28T11:55:11.680Z,59968.00
2022-09-28T11:56:12.080Z,60512.00
2022-09-28T11:57:11.656Z,62016.00
2022-09-28T11:58:11.623Z,60096.00
2022-09-28T11:59:11.857Z,58464.00
2022-09-28T12:00:11.630Z,55072.00
2022-09-28T12:01:14.342Z,53696.00
2022-09-28T12:02:12.698Z,47776.00
2022-09-28T12:03:11.671Z,38240.00
2022-09-28T12:04:14.289Z,13644.00
2022-09-28T12:05:11.581Z,19008.00
2022-09-28T12:06:12.113Z,16096.00
2022-09-28T12:07:11.514Z,15712.00
2022-09-28T12:08:12.190Z,15552.00
2022-09-28T12:09:11.559Z,15488.00
2022-09-28T12:10:11.473Z,15616.00
2022-09-28T12:11:11.450Z,15520.00
2022-09-28T12:12:11.436Z,15136.00
2022-09-28T12:13:11.440Z,14976.00
2022-09-28T12:14:11.487Z,15392.00
2022-09-28T12:15:11.771Z,15616.00
2022-09-28T12:17:14.450Z,14624.00
2022-09-28T12:18:12.426Z,13916.00
2022-09-28T12:19:11.418Z,13920.00
2022-09-28T12:20:11.358Z,14028.00
2022-09-28T12:21:11.363Z,13848.00
2022-09-28T12:22:11.312Z,13548.00
2022-09-28T12:23:11.305Z,13212.00
2022-09-28T12:24:11.291Z,13192.00
2022-09-28T12:25:11.276Z,13304.00
2022-09-28T12:26:11.264Z,13524.00
2022-09-28T12:27:11.246Z,13588.00
2022-09-28T12:28:11.287Z,13708.00
2022-09-28T12:29:11.282Z,13744.00
2022-09-28T12:30:11.497Z,14304.00
2022-09-28T12:31:13.961Z,11220.00
2022-09-28T12:32:11.456Z,14784.00
2022-09-28T12:33:11.172Z,14656.00
2022-09-28T12:34:11.448Z,14400.00
2022-09-28T12:35:13.135Z,14624.00
2022-09-28T12:36:11.183Z,14784.00
2022-09-28T12:37:11.126Z,15040.00
2022-09-28T12:38:11.096Z,15680.00
2022-09-28T12:39:27.048Z,24256.00
2022-09-28T12:40:12.103Z,42304.00